Time;durP1;ratioP1;P1;durP2;ratioP2;P2;SDS_P1;SDS_P2;PMS_P1;PMS_P2;Temp;Humidity;BMP_temperature;BMP_pressure;BME280_temperature;BME280_humidity;BME280_pressure;Samples;Min_cycle;Max_cycle;Signal;HPM_P1;HPM_P2
2022/01/23 00:00:20;;;;;;;5.85;3.55;;;;;;;;;;5056325;28;20090;-72
2022/01/23 00:02:49;;;;;;;9.57;3.10;;;;;;;;;;5055499;28;20037;-71
2022/01/23 00:05:18;;;;;;;7.43;3.20;;;;;;;;;;5073714;28;20517;-75
2022/01/23 00:07:46;;;;;;;7.78;2.80;;;;;;;;;;5072734;28;20063;-72
2022/01/23 00:10:14;;;;;;;3.60;2.45;;;;;;;;;;5056007;28;20043;-75
2022/01/23 00:12:47;;;;;;;8.85;2.80;;;;;;;;;;5055462;28;20052;-74
2022/01/23 00:18:01;;;;;;;3.85;2.78;;;;;;;;;;5073925;28;20384;-71
2022/01/23 00:20:29;;;;;;;4.03;2.55;;;;;;;;;;5073234;28;20434;-74
2022/01/23 00:23:00;;;;;;;3.90;2.47;;;;;;;;;;5055761;28;20391;-74
2022/01/23 00:31:00;;;;;;;4.57;2.25;;;;;;;;;;5055738;28;20072;-71
2022/01/23 00:33:28;;;;;;;4.60;1.98;;;;;;;;;;5054402;28;20052;-72
2022/01/23 00:35:55;;;;;;;6.25;2.17;;;;;;;;;;5073514;28;20040;-72
2022/01/23 00:38:23;;;;;;;7.38;2.40;;;;;;;;;;5038942;28;20040;-74
2022/01/23 00:40:50;;;;;;;12.38;2.75;;;;;;;;;;5072859;28;20051;-74
2022/01/23 00:43:28;;;;;;;2.75;1.92;;;;;;;;;;5055905;28;20036;-75
2022/01/23 00:48:42;;;;;;;5.43;2.00;;;;;;;;;;5073309;28;20036;-74
2022/01/23 00:51:10;;;;;;;4.55;1.90;;;;;;;;;;5054639;28;20516;-75
2022/01/23 00:53:38;;;;;;;2.60;1.67;;;;;;;;;;5073095;28;20115;-74
2022/01/23 00:56:05;;;;;;;5.38;2.25;;;;;;;;;;5038856;28;20383;-74
2022/01/23 00:58:33;;;;;;;3.58;1.98;;;;;;;;;;5055298;28;20067;-72
2022/01/23 01:01:01;;;;;;;5.80;1.67;;;;;;;;;;5037957;28;20139;-74
2022/01/23 01:03:28;;;;;;;3.45;1.63;;;;;;;;;;5072717;28;20551;-71
2022/01/23 01:05:56;;;;;;;3.17;1.25;;;;;;;;;;5072971;28;20040;-74
2022/01/23 01:08:24;;;;;;;2.20;1.30;;;;;;;;;;5072787;28;20369;-74
2022/01/23 01:11:08;;;;;;;2.05;1.45;;;;;;;;;;5054909;28;20044;-72
2022/01/23 01:31:05;;;;;;;4.30;1.42;;;;;;;;;;5058906;28;20083;-71
2022/01/23 01:36:23;;;;;;;4.10;1.90;;;;;;;;;;5058760;28;20090;-74
2022/01/23 01:38:54;;;;;;;4.82;1.80;;;;;;;;;;5058730;28;20048;-74
2022/01/23 01:41:24;;;;;;;5.55;1.77;;;;;;;;;;5043345;28;20072;-74
2022/01/23 01:43:53;;;;;;;4.65;1.58;;;;;;;;;;5058228;28;20051;-72
2022/01/23 01:46:40;;;;;;;5.72;2.35;;;;;;;;;;5043343;28;20068;-75
2022/01/23 01:49:08;;;;;;;3.38;2.00;;;;;;;;;;5058371;28;20048;-75
2022/01/23 01:51:36;;;;;;;2.58;1.77;;;;;;;;;;5058107;28;20395;-72
2022/01/23 01:54:15;;;;;;;3.15;1.88;;;;;;;;;;5058563;28;20048;-72
2022/01/23 01:56:51;;;;;;;4.20;2.00;;;;;;;;;;5058537;28;20045;-75
2022/01/23 02:10:33;;;;;;;4.15;1.77;;;;;;;;;;5058080;28;20412;-72
2022/01/23 02:52:46;;;;;;;6.65;1.83;;;;;;;;;;5075042;28;20036;-71
2022/01/23 02:55:39;;;;;;;4.00;1.60;;;;;;;;;;5057302;28;20044;-71
2022/01/23 02:58:05;;;;;;;2.55;1.70;;;;;;;;;;5057324;28;20568;-75
2022/01/23 03:00:47;;;;;;;2.83;1.60;;;;;;;;;;5057114;28;20045;-76
2022/01/23 03:03:43;;;;;;;3.17;1.70;;;;;;;;;;5073694;28;20094;-74
2022/01/23 03:10:13;;;;;;;5.75;1.83;;;;;;;;;;5038680;28;20391;-72
2022/01/23 03:15:03;;;;;;;4.07;2.10;;;;;;;;;;5054633;28;20047;-75
2022/01/23 03:31:24;;;;;;;2.53;1.80;;;;;;;;;;5054158;28;20037;-75
2022/01/23 03:33:53;;;;;;;3.92;1.90;;;;;;;;;;5054780;28;20047;-74
2022/01/23 03:36:20;;;;;;;2.85;1.52;;;;;;;;;;5036816;28;20040;-71
2022/01/23 03:38:48;;;;;;;7.13;1.48;;;;;;;;;;5036825;28;20047;-74
2022/01/23 03:41:16;;;;;;;2.28;1.33;;;;;;;;;;5036280;28;20041;-75
2022/01/23 03:43:44;;;;;;;1.10;1.00;;;;;;;;;;5054168;28;20041;-74
2022/01/23 03:46:33;;;;;;;3.20;1.90;;;;;;;;;;5036979;28;20103;-71
2022/01/23 03:51:52;;;;;;;2.97;1.40;;;;;;;;;;5036256;28;20045;-71
2022/01/23 03:54:19;;;;;;;2.67;1.38;;;;;;;;;;5036421;28;20475;-75
2022/01/23 03:56:47;;;;;;;5.03;1.73;;;;;;;;;;5035264;28;20075;-75
2022/01/23 03:59:18;;;;;;;3.35;1.95;;;;;;;;;;5036523;28;20055;-72
2022/01/23 04:01:45;;;;;;;3.90;2.40;;;;;;;;;;5036418;28;20476;-75
2022/01/23 04:06:54;;;;;;;3.20;1.83;;;;;;;;;;5036221;28;20049;-72
2022/01/23 04:09:22;;;;;;;3.05;1.70;;;;;;;;;;5036266;28;20128;-75
2022/01/23 04:11:50;;;;;;;5.50;2.30;;;;;;;;;;5035927;28;20041;-75
2022/01/23 04:14:20;;;;;;;6.78;2.70;;;;;;;;;;5035824;28;20059;-74
2022/01/23 04:17:25;;;;;;;8.43;3.10;;;;;;;;;;5035848;28;20218;-71
2022/01/23 04:20:03;;;;;;;5.75;2.55;;;;;;;;;;5035696;28;20048;-72
2022/01/23 04:33:42;;;;;;;1.80;1.10;;;;;;;;;;5053395;28;20057;-71
2022/01/23 05:01:02;;;;;;;1.10;1.00;;;;;;;;;;5035138;28;20056;-74
2022/01/23 05:09:46;;;;;;;2.50;1.00;;;;;;;;;;5052971;28;20053;-74
2022/01/23 05:12:26;;;;;;;3.03;1.55;;;;;;;;;;5051719;28;20053;-74
2022/01/23 05:14:54;;;;;;;3.05;1.20;;;;;;;;;;5034884;28;20485;-75
2022/01/23 05:17:22;;;;;;;1.48;1.17;;;;;;;;;;5052445;28;20049;-72
2022/01/23 05:19:51;;;;;;;1.60;1.48;;;;;;;;;;5035113;28;20520;-74
2022/01/23 05:24:53;;;;;;;4.10;1.27;;;;;;;;;;5034752;28;20504;-71
2022/01/23 05:27:27;;;;;;;3.60;1.33;;;;;;;;;;5052613;28;20526;-74
2022/01/23 05:29:57;;;;;;;3.38;1.63;;;;;;;;;;5052607;28;20061;-76
2022/01/23 05:32:27;;;;;;;4.47;2.40;;;;;;;;;;5052674;28;20037;-74
2022/01/23 05:34:55;;;;;;;3.88;2.35;;;;;;;;;;5035076;28;20068;-74
2022/01/23 05:37:28;;;;;;;7.57;3.67;;;;;;;;;;5034278;28;20065;-72
2022/01/23 05:39:57;;;;;;;8.52;3.75;;;;;;;;;;5034373;28;20044;-71
2022/01/23 05:42:24;;;;;;;9.35;4.18;;;;;;;;;;5034723;28;20045;-74
2022/01/23 05:44:52;;;;;;;9.48;5.05;;;;;;;;;;5034745;28;20094;-71
2022/01/23 05:47:19;;;;;;;8.70;4.18;;;;;;;;;;5034864;28;20103;-75
2022/01/23 05:50:10;;;;;;;11.23;5.38;;;;;;;;;;5051175;28;20523;-72
2022/01/23 05:53:00;;;;;;;13.23;6.03;;;;;;;;;;5032803;28;20396;-71
2022/01/23 05:55:48;;;;;;;13.85;6.65;;;;;;;;;;5034742;28;20041;-75
2022/01/23 05:58:37;;;;;;;12.43;5.65;;;;;;;;;;5034998;28;20045;-72
2022/01/23 06:01:05;;;;;;;12.25;4.53;;;;;;;;;;5034732;28;20103;-72
2022/01/23 06:03:34;;;;;;;7.20;3.40;;;;;;;;;;5034662;28;20547;-74
2022/01/23 06:06:07;;;;;;;10.27;5.45;;;;;;;;;;5042552;28;20048;-74
2022/01/23 06:08:35;;;;;;;11.38;6.18;;;;;;;;;;5058078;28;20049;-74
2022/01/23 06:11:03;;;;;;;10.75;5.97;;;;;;;;;;5041658;28;20041;-71
2022/01/23 06:13:36;;;;;;;7.75;5.00;;;;;;;;;;5050101;28;20565;-75
2022/01/23 06:16:06;;;;;;;7.40;4.38;;;;;;;;;;5056273;28;20500;-72
2022/01/23 06:18:36;;;;;;;5.82;3.97;;;;;;;;;;5058514;28;20510;-76
2022/01/23 06:21:24;;;;;;;3.60;2.55;;;;;;;;;;5061246;28;20094;-71
2022/01/23 06:24:30;;;;;;;3.20;2.30;;;;;;;;;;5014274;28;20111;-75
2022/01/23 06:27:05;;;;;;;3.80;2.25;;;;;;;;;;5050040;28;20045;-71
2022/01/23 06:29:38;;;;;;;5.70;2.83;;;;;;;;;;5057439;28;20052;-76
2022/01/23 06:32:06;;;;;;;4.70;2.13;;;;;;;;;;5057864;28;20454;-71
2022/01/23 06:34:33;;;;;;;3.30;1.55;;;;;;;;;;5075715;28;20043;-71
2022/01/23 06:37:03;;;;;;;6.68;2.58;;;;;;;;;;5057564;28;20052;-71
2022/01/23 06:39:31;;;;;;;2.33;2.08;;;;;;;;;;5057690;28;20102;-72
2022/01/23 06:42:01;;;;;;;3.63;1.90;;;;;;;;;;5044993;28;20056;-71
2022/01/23 06:44:38;;;;;;;3.28;2.92;;;;;;;;;;5047784;28;20083;-71
2022/01/23 06:47:10;;;;;;;6.40;2.20;;;;;;;;;;5037929;28;20056;-76
2022/01/23 06:49:41;;;;;;;2.63;1.75;;;;;;;;;;5021686;28;20052;-71
2022/01/23 06:52:13;;;;;;;1.60;1.40;;;;;;;;;;5037423;28;20037;-76
2022/01/23 06:54:51;;;;;;;7.70;2.15;;;;;;;;;;5037686;28;20076;-76
2022/01/23 06:57:20;;;;;;;2.80;1.40;;;;;;;;;;5051226;28;20068;-73
2022/01/23 06:59:53;;;;;;;5.13;3.20;;;;;;;;;;5040128;28;20076;-76
2022/01/23 07:02:44;;;;;;;7.35;3.13;;;;;;;;;;5008750;28;20100;-77
2022/01/23 07:05:38;;;;;;;1.83;1.58;;;;;;;;;;4996158;28;20607;-72
2022/01/23 07:08:16;;;;;;;2.20;1.90;;;;;;;;;;4996506;28;20134;-78
2022/01/23 07:10:52;;;;;;;5.18;2.03;;;;;;;;;;4996407;28;20042;-77
2022/01/23 07:13:28;;;;;;;2.05;1.85;;;;;;;;;;4995498;28;20056;-77
2022/01/23 07:16:15;;;;;;;2.75;1.60;;;;;;;;;;5005877;28;20505;-77
2022/01/23 07:19:23;;;;;;;2.20;1.50;;;;;;;;;;4936825;28;20574;-77
2022/01/23 07:21:58;;;;;;;4.10;1.77;;;;;;;;;;4935296;29;20048;-75
2022/01/23 07:24:27;;;;;;;2.70;1.88;;;;;;;;;;4933776;29;20055;-73
2022/01/23 07:26:54;;;;;;;3.15;1.63;;;;;;;;;;4931180;29;20048;-73
2022/01/23 07:29:22;;;;;;;4.57;2.38;;;;;;;;;;4916979;29;20091;-71
2022/01/23 07:32:06;;;;;;;4.50;2.00;;;;;;;;;;4917274;29;20039;-71
2022/01/23 07:34:34;;;;;;;5.72;2.50;;;;;;;;;;4902283;29;20040;-75
2022/01/23 07:37:05;;;;;;;4.00;2.42;;;;;;;;;;4934699;29;20071;-75
2022/01/23 07:39:47;;;;;;;4.70;3.30;;;;;;;;;;4952177;28;20117;-78
2022/01/23 07:42:23;;;;;;;3.63;2.80;;;;;;;;;;4957031;28;20082;-71
2022/01/23 07:45:00;;;;;;;5.30;3.22;;;;;;;;;;4971773;28;20427;-71
2022/01/23 07:48:01;;;;;;;5.18;2.53;;;;;;;;;;4955646;28;20050;-71
2022/01/23 07:50:40;;;;;;;4.75;3.17;;;;;;;;;;5010595;28;20111;-77
2022/01/23 07:53:34;;;;;;;3.80;2.85;;;;;;;;;;5030254;28;20055;-71
2022/01/23 07:56:06;;;;;;;5.97;3.03;;;;;;;;;;5036736;28;20041;-75
2022/01/23 07:58:52;;;;;;;4.55;3.75;;;;;;;;;;5039512;28;20052;-77
2022/01/23 08:01:30;;;;;;;6.95;4.68;;;;;;;;;;5036575;28;20045;-71
2022/01/23 08:04:18;;;;;;;7.68;4.70;;;;;;;;;;5018911;28;20052;-77
2022/01/23 08:06:48;;;;;;;6.72;4.57;;;;;;;;;;5052650;28;20045;-78
2022/01/23 08:09:36;;;;;;;7.63;4.70;;;;;;;;;;5053910;28;20049;-78
2022/01/23 08:12:09;;;;;;;10.77;5.68;;;;;;;;;;5053760;28;20095;-78
2022/01/23 08:14:38;;;;;;;10.18;5.45;;;;;;;;;;5053677;28;20504;-71
2022/01/23 08:17:06;;;;;;;11.95;6.00;;;;;;;;;;5036228;28;20033;-76
2022/01/23 08:19:33;;;;;;;14.73;6.05;;;;;;;;;;5053919;28;20396;-71
2022/01/23 08:22:01;;;;;;;9.02;5.55;;;;;;;;;;5053613;28;20048;-71
2022/01/23 08:24:28;;;;;;;8.20;4.03;;;;;;;;;;5053629;28;20120;-78
2022/01/23 08:26:56;;;;;;;8.25;4.20;;;;;;;;;;5053667;28;20132;-71
2022/01/23 08:29:23;;;;;;;6.47;3.55;;;;;;;;;;5052556;28;20513;-75
2022/01/23 08:31:51;;;;;;;6.05;3.67;;;;;;;;;;5036590;28;20045;-72
2022/01/23 08:34:18;;;;;;;5.15;2.85;;;;;;;;;;5053367;28;20063;-78
2022/01/23 08:36:55;;;;;;;3.10;2.50;;;;;;;;;;5053408;28;20064;-76
2022/01/23 08:39:25;;;;;;;4.30;2.80;;;;;;;;;;5053981;28;20045;-78
2022/01/23 08:41:53;;;;;;;3.28;2.45;;;;;;;;;;5052878;28;20468;-78
2022/01/23 08:44:21;;;;;;;4.45;2.95;;;;;;;;;;5053519;28;20041;-78
2022/01/23 08:46:49;;;;;;;4.85;2.90;;;;;;;;;;5053128;28;20037;-72
2022/01/23 08:49:18;;;;;;;4.53;2.83;;;;;;;;;;5053012;28;20045;-71
2022/01/23 08:51:46;;;;;;;5.43;3.28;;;;;;;;;;5053057;28;20053;-76
2022/01/23 08:54:13;;;;;;;5.95;3.08;;;;;;;;;;5053265;28;20048;-71
2022/01/23 08:56:42;;;;;;;3.35;2.33;;;;;;;;;;5053010;28;20036;-71
2022/01/23 08:59:10;;;;;;;3.00;1.60;;;;;;;;;;5034901;28;20451;-77
2022/01/23 09:01:37;;;;;;;2.90;1.70;;;;;;;;;;5052940;28;20043;-78
2022/01/23 09:04:06;;;;;;;3.15;2.20;;;;;;;;;;5052958;28;20848;-77
2022/01/23 09:06:33;;;;;;;3.13;2.20;;;;;;;;;;5035648;28;20045;-71
2022/01/23 09:09:04;;;;;;;4.45;2.13;;;;;;;;;;5052542;28;20047;-71
2022/01/23 09:14:10;;;;;;;12.63;2.20;;;;;;;;;;5040140;28;20053;-78
2022/01/23 09:16:39;;;;;;;4.30;1.70;;;;;;;;;;5032451;28;20386;-72
2022/01/23 09:19:07;;;;;;;3.38;2.30;;;;;;;;;;4999294;28;20053;-71
2022/01/23 09:21:36;;;;;;;4.07;2.38;;;;;;;;;;5032665;28;20371;-76
2022/01/23 09:24:03;;;;;;;3.55;2.45;;;;;;;;;;5015690;28;20048;-72
2022/01/23 09:26:33;;;;;;;3.85;2.47;;;;;;;;;;5016497;28;20049;-77
2022/01/23 09:29:12;;;;;;;3.25;2.10;;;;;;;;;;5033260;28;20540;-72
2022/01/23 09:31:48;;;;;;;6.82;2.38;;;;;;;;;;5034472;28;20044;-75
2022/01/23 09:34:23;;;;;;;3.33;1.60;;;;;;;;;;5034587;28;20045;-76
2022/01/23 09:36:51;;;;;;;5.45;2.03;;;;;;;;;;5035098;28;20151;-71
2022/01/23 09:39:20;;;;;;;5.82;2.10;;;;;;;;;;5053586;28;20076;-72
2022/01/23 09:42:03;;;;;;;3.58;1.90;;;;;;;;;;5056351;28;20412;-71
2022/01/23 09:44:34;;;;;;;4.45;2.03;;;;;;;;;;5056451;28;20077;-77
2022/01/23 09:47:02;;;;;;;4.25;2.13;;;;;;;;;;5056255;28;20127;-72
2022/01/23 09:49:30;;;;;;;3.53;2.00;;;;;;;;;;5056592;28;20048;-71
2022/01/23 09:52:00;;;;;;;5.72;2.20;;;;;;;;;;5056311;28;20033;-71
2022/01/23 09:54:29;;;;;;;2.88;2.08;;;;;;;;;;5038477;28;20040;-75
2022/01/23 09:57:05;;;;;;;4.13;2.55;;;;;;;;;;5056207;28;20041;-71
2022/01/23 09:59:33;;;;;;;3.80;2.50;;;;;;;;;;5056732;28;20078;-71
2022/01/23 10:02:03;;;;;;;5.75;2.60;;;;;;;;;;5056780;28;20037;-75
2022/01/23 10:04:31;;;;;;;4.25;2.20;;;;;;;;;;5055996;28;20466;-71
2022/01/23 10:06:59;;;;;;;4.20;2.10;;;;;;;;;;5055757;28;20052;-75
2022/01/23 10:09:31;;;;;;;4.85;1.75;;;;;;;;;;5055895;28;20518;-77
2022/01/23 10:11:59;;;;;;;3.20;2.20;;;;;;;;;;5139578;23;20054;-76
2022/01/23 10:14:26;;;;;;;3.08;2.00;;;;;;;;;;5054367;28;20376;-71
2022/01/23 10:16:54;;;;;;;2.65;1.70;;;;;;;;;;5037792;28;20045;-77
2022/01/23 10:19:22;;;;;;;5.13;3.03;;;;;;;;;;5055960;28;20041;-78
2022/01/23 10:21:49;;;;;;;6.30;4.18;;;;;;;;;;5037869;28;20071;-71
2022/01/23 10:24:17;;;;;;;3.00;2.05;;;;;;;;;;5056047;28;20044;-77
2022/01/23 10:26:48;;;;;;;3.95;2.17;;;;;;;;;;5037776;28;20484;-77
2022/01/23 10:29:29;;;;;;;4.88;3.28;;;;;;;;;;5069732;28;20404;-71
2022/01/23 10:32:11;;;;;;;4.15;2.55;;;;;;;;;;5075905;28;20041;-74
2022/01/23 10:34:46;;;;;;;4.20;2.03;;;;;;;;;;5076043;28;20037;-71
2022/01/23 10:37:35;;;;;;;3.58;2.30;;;;;;;;;;5076036;28;20090;-74
2022/01/23 10:40:11;;;;;;;3.60;2.15;;;;;;;;;;5058754;28;20075;-76
2022/01/23 10:48:37;;;;;;;2.00;1.50;;;;;;;;;;5072108;28;20050;-71
2022/01/23 10:51:14;;;;;;;10.95;4.00;;;;;;;;;;5074661;28;20058;-77
2022/01/23 10:54:01;;;;;;;8.75;3.20;;;;;;;;;;5057252;28;20036;-77
2022/01/23 10:56:33;;;;;;;6.78;3.13;;;;;;;;;;5075468;28;20040;-71
2022/01/23 10:59:00;;;;;;;2.83;1.77;;;;;;;;;;5075960;28;20494;-76
2022/01/23 11:01:28;;;;;;;7.97;2.50;;;;;;;;;;5075096;28;20045;-74
2022/01/23 11:04:08;;;;;;;4.50;1.95;;;;;;;;;;5074891;28;20110;-71
2022/01/23 11:06:59;;;;;;;2.42;1.75;;;;;;;;;;5074977;28;20127;-70
2022/01/23 11:09:28;;;;;;;2.35;1.85;;;;;;;;;;5044793;28;20044;-77
2022/01/23 11:12:02;;;;;;;4.15;2.00;;;;;;;;;;5075358;28;20120;-71
2022/01/23 11:17:22;;;;;;;3.60;1.90;;;;;;;;;;5074733;28;20048;-71
2022/01/23 11:19:50;;;;;;;;;;;;;;;;;;5041449;28;20102;-77
2022/01/23 11:22:26;;;;;;;2.58;1.48;;;;;;;;;;5074991;28;19924;-77
2022/01/23 11:24:57;;;;;;;2.88;2.10;;;;;;;;;;5075403;28;20045;-75
2022/01/23 11:27:30;;;;;;;3.92;1.88;;;;;;;;;;5074472;28;20439;-77
2022/01/23 11:30:00;;;;;;;3.08;1.65;;;;;;;;;;5074185;28;20047;-71
2022/01/23 11:32:38;;;;;;;3.95;1.90;;;;;;;;;;5074459;28;20068;-71
2022/01/23 11:35:10;;;;;;;2.72;1.85;;;;;;;;;;5056963;28;20037;-72
2022/01/23 11:37:48;;;;;;;2.10;1.85;;;;;;;;;;5074796;28;20399;-75
2022/01/23 11:53:55;;;;;;;6.15;2.85;;;;;;;;;;5073933;28;20055;-71
2022/01/23 11:56:25;;;;;;;4.10;1.95;;;;;;;;;;5056318;28;20383;-71
2022/01/23 11:58:54;;;;;;;5.82;2.03;;;;;;;;;;5056396;28;20041;-71
2022/01/23 12:01:25;;;;;;;3.30;1.60;;;;;;;;;;5074283;28;20506;-77
2022/01/23 12:04:20;;;;;;;5.10;1.95;;;;;;;;;;5055188;28;20045;-76
2022/01/23 12:07:06;;;;;;;8.07;4.65;;;;;;;;;;5073910;28;20137;-71
2022/01/23 12:09:34;;;;;;;3.38;2.13;;;;;;;;;;5039172;28;20041;-71
2022/01/23 12:12:09;;;;;;;3.25;1.70;;;;;;;;;;5073800;28;20037;-77
2022/01/23 12:17:18;;;;;;;1.98;1.65;;;;;;;;;;5073877;28;20045;-71
2022/01/23 12:19:47;;;;;;;5.15;2.15;;;;;;;;;;5056056;28;20127;-74
2022/01/23 12:22:26;;;;;;;3.03;1.67;;;;;;;;;;5055767;28;20045;-71
2022/01/23 12:24:56;;;;;;;6.43;2.30;;;;;;;;;;5074133;28;20063;-74
2022/01/23 12:27:26;;;;;;;4.68;1.83;;;;;;;;;;5054837;28;20396;-74
2022/01/23 12:30:10;;;;;;;2.55;1.40;;;;;;;;;;5069033;28;20032;-74
2022/01/23 12:32:38;;;;;;;2.80;1.95;;;;;;;;;;5055768;28;20126;-70
2022/01/23 12:35:07;;;;;;;3.60;1.50;;;;;;;;;;5055362;28;20045;-76
2022/01/23 12:37:53;;;;;;;3.83;1.67;;;;;;;;;;5073148;28;20036;-77
2022/01/23 12:40:33;;;;;;;4.65;1.65;;;;;;;;;;5061080;28;20079;-76
2022/01/23 12:43:05;;;;;;;3.15;1.80;;;;;;;;;;5055740;28;20040;-76
2022/01/23 12:45:42;;;;;;;1.85;1.42;;;;;;;;;;5073050;28;20095;-74
2022/01/23 12:48:29;;;;;;;2.50;1.63;;;;;;;;;;5073355;28;20051;-74
2022/01/23 12:50:58;;;;;;;3.38;1.33;;;;;;;;;;5055658;28;20470;-76
2022/01/23 12:53:55;;;;;;;4.07;1.48;;;;;;;;;;5073016;28;20388;-72
2022/01/23 12:56:32;;;;;;;2.97;1.45;;;;;;;;;;5052860;28;20052;-71
2022/01/23 12:59:11;;;;;;;2.60;1.27;;;;;;;;;;5073191;28;20048;-76
2022/01/23 13:01:42;;;;;;;3.67;1.38;;;;;;;;;;5073585;28;20042;-71
2022/01/23 13:04:11;;;;;;;1.92;1.13;;;;;;;;;;5038326;28;20471;-76
2022/01/23 13:06:54;;;;;;;1.58;1.33;;;;;;;;;;5072911;28;20040;-71
2022/01/23 13:12:07;;;;;;;2.38;1.25;;;;;;;;;;5072874;28;20044;-70
2022/01/23 13:26:31;;;;;;;3.08;1.23;;;;;;;;;;5019126;28;20050;-71
2022/01/23 13:29:48;;;;;;;2.55;1.13;;;;;;;;;;5052010;28;20072;-73
2022/01/23 13:31:41;;;;;;;2.15;1.38;;;;;;;;;;5067398;28;20099;-73
2022/01/23 13:34:30;;;;;;;1.90;1.55;;;;;;;;;;5059711;28;20044;-73
2022/01/23 13:37:03;;;;;;;3.88;1.30;;;;;;;;;;5065611;28;20120;-74
2022/01/23 13:39:34;;;;;;;4.60;1.27;;;;;;;;;;5069996;28;20039;-73
2022/01/23 13:42:13;;;;;;;2.97;1.52;;;;;;;;;;5062884;28;20040;-73
2022/01/23 13:53:30;;;;;;;5.25;1.30;;;;;;;;;;5053276;28;20040;-72
2022/01/23 13:59:05;;;;;;;1.98;1.20;;;;;;;;;;5009326;28;20148;-72
2022/01/23 14:01:47;;;;;;;3.40;1.25;;;;;;;;;;5041245;28;20051;-75
2022/01/23 14:04:16;;;;;;;3.45;1.38;;;;;;;;;;5046621;28;20095;-74
2022/01/23 14:06:44;;;;;;;2.63;1.48;;;;;;;;;;5062614;28;20048;-73
2022/01/23 14:09:14;;;;;;;1.52;1.33;;;;;;;;;;5068065;28;20036;-76
2022/01/23 14:11:42;;;;;;;3.25;1.60;;;;;;;;;;5068240;28;20043;-73
2022/01/23 14:14:18;;;;;;;2.17;1.45;;;;;;;;;;5063171;28;20071;-76
2022/01/23 14:16:48;;;;;;;1.85;1.10;;;;;;;;;;5065436;28;20037;-73
2022/01/23 14:19:20;;;;;;;3.55;1.38;;;;;;;;;;5062177;28;20031;-78
2022/01/23 14:21:50;;;;;;;3.22;1.33;;;;;;;;;;5071926;28;20045;-72
2022/01/23 14:24:27;;;;;;;3.08;1.15;;;;;;;;;;5072004;28;20048;-75
2022/01/23 14:27:00;;;;;;;3.75;1.38;;;;;;;;;;5073718;28;20048;-72
2022/01/23 14:29:29;;;;;;;3.05;1.70;;;;;;;;;;5057843;28;20044;-74
2022/01/23 14:32:06;;;;;;;11.90;4.18;;;;;;;;;;5075472;28;20065;-71
2022/01/23 14:34:34;;;;;;;5.95;1.27;;;;;;;;;;5075109;28;20091;-75
2022/01/23 14:37:06;;;;;;;2.58;1.20;;;;;;;;;;5074816;28;20387;-75
2022/01/23 14:39:35;;;;;;;3.10;1.55;;;;;;;;;;5075477;28;20422;-74
2022/01/23 14:42:13;;;;;;;1.23;0.80;;;;;;;;;;5075439;28;20044;-71
2022/01/23 14:44:41;;;;;;;1.20;0.73;;;;;;;;;;5075655;28;20037;-71
2022/01/23 14:47:09;;;;;;;5.90;1.48;;;;;;;;;;5075438;28;20033;-75
2022/01/23 14:49:38;;;;;;;1.40;1.20;;;;;;;;;;5075427;28;20041;-71
2022/01/23 14:52:10;;;;;;;2.63;0.90;;;;;;;;;;5057489;28;20131;-74
2022/01/23 14:54:38;;;;;;;3.33;1.10;;;;;;;;;;5057488;28;20406;-71
2022/01/23 14:57:07;;;;;;;5.35;1.20;;;;;;;;;;5075282;28;20052;-74
2022/01/23 14:59:35;;;;;;;1.55;0.90;;;;;;;;;;5057225;28;20045;-74
2022/01/23 15:02:04;;;;;;;2.92;1.02;;;;;;;;;;5075219;28;20037;-74
2022/01/23 15:04:39;;;;;;;2.20;1.67;;;;;;;;;;5040593;28;20457;-74
2022/01/23 15:07:13;;;;;;;3.20;1.58;;;;;;;;;;5075010;28;20044;-72
2022/01/23 15:09:41;;;;;;;6.22;1.20;;;;;;;;;;5074911;28;20480;-72
2022/01/23 15:12:09;;;;;;;2.40;1.10;;;;;;;;;;5074902;28;20037;-74
2022/01/23 15:14:36;;;;;;;2.35;1.15;;;;;;;;;;5074578;28;20048;-75
2022/01/23 15:17:04;;;;;;;4.80;1.08;;;;;;;;;;5074526;28;20037;-75
2022/01/23 15:19:32;;;;;;;8.43;1.45;;;;;;;;;;5056842;28;20517;-71
2022/01/23 15:22:00;;;;;;;5.13;1.45;;;;;;;;;;5057008;28;20045;-72
2022/01/23 15:24:28;;;;;;;4.45;1.50;;;;;;;;;;5074561;28;20507;-71
2022/01/23 15:26:55;;;;;;;4.40;1.20;;;;;;;;;;5074629;28;20040;-74
2022/01/23 15:29:23;;;;;;;3.72;2.17;;;;;;;;;;5074342;28;20436;-72
2022/01/23 15:31:50;;;;;;;5.18;2.35;;;;;;;;;;5056673;28;20040;-74
2022/01/23 15:34:20;;;;;;;2.70;2.00;;;;;;;;;;5056342;28;20047;-71
2022/01/23 15:36:48;;;;;;;6.15;1.77;;;;;;;;;;5056029;28;20044;-74
2022/01/23 15:39:18;;;;;;;2.88;1.70;;;;;;;;;;5056472;28;20046;-71
2022/01/23 15:41:46;;;;;;;2.72;1.15;;;;;;;;;;5056468;28;20468;-71
2022/01/23 15:44:16;;;;;;;3.97;1.50;;;;;;;;;;5074123;28;20400;-74
2022/01/23 15:46:44;;;;;;;2.22;1.45;;;;;;;;;;5056516;28;20071;-74
2022/01/23 15:49:11;;;;;;;3.17;1.70;;;;;;;;;;5056116;28;20135;-71
2022/01/23 15:51:38;;;;;;;7.25;1.25;;;;;;;;;;5071077;28;20036;-72
2022/01/23 15:54:06;;;;;;;3.85;1.63;;;;;;;;;;5035588;28;20037;-71
2022/01/23 15:56:33;;;;;;;4.10;2.38;;;;;;;;;;5043779;28;20115;-74
2022/01/23 15:59:01;;;;;;;6.35;3.65;;;;;;;;;;5056880;28;20535;-72
2022/01/23 16:01:29;;;;;;;2.97;1.40;;;;;;;;;;5062629;28;20037;-71
2022/01/23 16:03:57;;;;;;;10.65;4.32;;;;;;;;;;5061771;28;20095;-74
2022/01/23 16:06:25;;;;;;;3.50;2.15;;;;;;;;;;5040558;28;20055;-74
2022/01/23 16:08:52;;;;;;;2.70;1.42;;;;;;;;;;5045224;28;20484;-74
2022/01/23 16:11:20;;;;;;;3.83;1.50;;;;;;;;;;5043557;28;20381;-73
2022/01/23 16:13:47;;;;;;;6.75;2.20;;;;;;;;;;5050976;28;20048;-74
2022/01/23 16:16:16;;;;;;;4.35;2.38;;;;;;;;;;5069867;28;20037;-71
2022/01/23 16:18:45;;;;;;;5.90;1.90;;;;;;;;;;5072902;28;20156;-74
2022/01/23 16:21:13;;;;;;;3.13;2.67;;;;;;;;;;5070635;28;20036;-71
2022/01/23 16:23:41;;;;;;;5.75;2.88;;;;;;;;;;5072810;28;20041;-75
2022/01/23 16:26:19;;;;;;;9.95;4.53;;;;;;;;;;5071228;28;20043;-71
2022/01/23 16:28:48;;;;;;;5.22;4.22;;;;;;;;;;5054403;28;20055;-75
2022/01/23 16:31:16;;;;;;;12.13;4.13;;;;;;;;;;5037239;28;20113;-71
2022/01/23 16:33:44;;;;;;;5.90;2.35;;;;;;;;;;5073569;28;20478;-74
2022/01/23 16:36:12;;;;;;;7.53;2.38;;;;;;;;;;5073522;28;20037;-71
2022/01/23 16:38:40;;;;;;;12.80;6.80;;;;;;;;;;5072688;28;20063;-72
2022/01/23 16:41:08;;;;;;;7.65;4.30;;;;;;;;;;5073063;28;20072;-75
2022/01/23 16:43:36;;;;;;;9.70;3.53;;;;;;;;;;5054957;28;20055;-72
2022/01/23 16:46:06;;;;;;;4.05;3.30;;;;;;;;;;5072938;28;20102;-75
2022/01/23 16:48:34;;;;;;;6.25;3.22;;;;;;;;;;5038115;28;20222;-74
2022/01/23 16:51:04;;;;;;;5.50;3.30;;;;;;;;;;5055254;28;20375;-75
2022/01/23 16:53:32;;;;;;;8.02;3.10;;;;;;;;;;5054962;28;20046;-75
2022/01/23 16:56:05;;;;;;;7.25;3.03;;;;;;;;;;5073027;28;20047;-71
2022/01/23 16:58:33;;;;;;;7.93;2.95;;;;;;;;;;5055191;28;20045;-71
2022/01/23 17:01:01;;;;;;;8.60;2.90;;;;;;;;;;5054178;28;20047;-75
2022/01/23 17:03:29;;;;;;;11.85;3.33;;;;;;;;;;5072470;28;20041;-71
2022/01/23 17:05:56;;;;;;;3.42;2.60;;;;;;;;;;5072243;28;20039;-72
2022/01/23 17:08:24;;;;;;;6.10;2.28;;;;;;;;;;5072963;28;20047;-71
2022/01/23 17:10:52;;;;;;;5.90;2.60;;;;;;;;;;5054235;28;20468;-74
2022/01/23 17:13:21;;;;;;;9.18;2.83;;;;;;;;;;5063063;28;20232;-74
2022/01/23 17:15:49;;;;;;;6.45;3.92;;;;;;;;;;5052352;28;20059;-74
2022/01/23 17:18:17;;;;;;;5.53;2.75;;;;;;;;;;5031052;28;20037;-72
2022/01/23 17:20:45;;;;;;;4.25;2.90;;;;;;;;;;5049566;28;20049;-74
2022/01/23 17:23:15;;;;;;;6.60;3.78;;;;;;;;;;5052512;28;20044;-71
2022/01/23 17:25:42;;;;;;;10.40;5.88;;;;;;;;;;5052345;28;20041;-72
2022/01/23 17:28:10;;;;;;;7.35;3.78;;;;;;;;;;5034763;28;20502;-73
2022/01/23 17:30:37;;;;;;;8.30;3.42;;;;;;;;;;5052147;28;20045;-77
2022/01/23 17:33:05;;;;;;;8.77;3.55;;;;;;;;;;5052692;28;20044;-71
2022/01/23 17:35:33;;;;;;;8.30;4.15;;;;;;;;;;5034797;28;20128;-73
2022/01/23 17:38:01;;;;;;;7.30;4.53;;;;;;;;;;5031562;28;20037;-72
2022/01/23 17:40:29;;;;;;;9.20;4.40;;;;;;;;;;5051722;28;20123;-72
2022/01/23 17:42:57;;;;;;;8.77;3.83;;;;;;;;;;5034146;28;20069;-74
2022/01/23 17:48:33;;;;;;;9.70;3.20;;;;;;;;;;5047282;28;20049;-73
2022/01/23 17:51:04;;;;;;;5.05;3.20;;;;;;;;;;5040868;28;20116;-72
2022/01/23 17:53:33;;;;;;;8.07;3.95;;;;;;;;;;5051878;28;20044;-74
2022/01/23 17:56:03;;;;;;;5.25;2.78;;;;;;;;;;5034380;28;20052;-74
2022/01/23 17:58:31;;;;;;;4.43;2.03;;;;;;;;;;5047066;28;20033;-72
2022/01/23 18:00:59;;;;;;;5.85;2.53;;;;;;;;;;5050377;28;20036;-73
2022/01/23 18:03:28;;;;;;;10.18;3.25;;;;;;;;;;5052614;28;20062;-75
2022/01/23 18:05:59;;;;;;;4.93;2.92;;;;;;;;;;5037477;28;20527;-75
2022/01/23 18:08:28;;;;;;;6.63;3.47;;;;;;;;;;5050856;28;20044;-71
2022/01/23 18:10:55;;;;;;;5.80;2.05;;;;;;;;;;5051723;28;20041;-72
2022/01/23 18:13:25;;;;;;;3.55;1.90;;;;;;;;;;5050570;28;20092;-74
2022/01/23 18:15:55;;;;;;;5.82;2.28;;;;;;;;;;5052301;28;20041;-74
2022/01/23 18:18:24;;;;;;;2.60;1.60;;;;;;;;;;5038179;28;20539;-74
2022/01/23 18:20:52;;;;;;;4.97;1.95;;;;;;;;;;5038018;28;20045;-72
2022/01/23 18:23:20;;;;;;;2.33;1.58;;;;;;;;;;5055824;28;20409;-72
2022/01/23 18:25:47;;;;;;;3.15;1.30;;;;;;;;;;5038249;28;20049;-72
2022/01/23 18:28:16;;;;;;;4.85;1.77;;;;;;;;;;5029538;28;20037;-72
2022/01/23 18:30:44;;;;;;;3.42;2.08;;;;;;;;;;5020835;28;20049;-73
2022/01/23 18:33:23;;;;;;;3.92;2.30;;;;;;;;;;5034774;28;20037;-76
2022/01/23 18:35:51;;;;;;;2.53;1.70;;;;;;;;;;5054414;28;20501;-73
2022/01/23 18:38:20;;;;;;;3.90;2.40;;;;;;;;;;5038072;28;20116;-74
2022/01/23 18:40:54;;;;;;;2.47;2.10;;;;;;;;;;5045877;28;20059;-73